Погода Радовичина неделю

Скопье, Македония

16 - 22 июля
  • 16июля
    Сегодня
    +22°
    +34°
    Практически безоблачно
    ВремяПогодаТемператураВлажностьДавлениеВетер, м/сВероятность осадков
    02:00Ясно и безоблачно+21°C53 %701 мм1.6 м/с2 %
    05:00Ясно и безоблачно+20°C53 %701 мм1.3 м/с2 %
    08:00Ясно и безоблачно+25°C47 %703 мм0.9 м/с2 %
    11:00Ясно и безоблачно+28°C37 %703 мм1.2 м/с2 %
    14:00Практически безоблачно+33°C32 %703 мм1.3 м/с2 %
    17:00Небольшая облачность+33°C31 %702 мм1.4 м/с2 %
    20:00Ясно и безоблачно+29°C46 %702 мм0.8 м/с2 %
    23:00Ясно и безоблачно+26°C63 %702 мм1.7 м/с2 %
  • 17июля
    Среда
    +20°
    +34°
    Практически безоблачно
    ВремяПогодаТемператураВлажностьДавлениеВетер, м/сВероятность осадков
    02:00Практически безоблачно+23°C67 %702 мм0.7 м/с2 %
    05:00Ясно и безоблачно+22°C52 %702 мм0.5 м/с2 %
    08:00Ясно и безоблачно+25°C54 %704 мм0.8 м/с2 %
    11:00Ясно и безоблачно+29°C40 %704 мм1.1 м/с2 %
    14:00Практически безоблачно+34°C26 %704 мм1.3 м/с6 %
    17:00Небольшая облачность+33°C27 %703 мм1.5 м/с12 %
    20:00Небольшая облачность+28°C42 %703 мм1.2 м/с3 %
    23:00Ясно и безоблачно+24°C53 %703 мм1.5 м/с2 %
  • 18июля
    Четверг
    +21°
    +34°
    Облачно с прояснениями
    ВремяПогодаТемператураВлажностьДавлениеВетер, м/сВероятность осадков
    02:00Ясно и безоблачно+22°C57 %703 мм1.1 м/с2 %
    05:00Ясно и безоблачно+21°C58 %703 мм1.3 м/с2 %
    08:00Ясно и безоблачно+26°C50 %705 мм1.1 м/с2 %
    11:00Ясно и безоблачно+30°C38 %705 мм1.1 м/с2 %
    14:00Облачно с прояснениями+34°C35 %705 мм0.9 м/с20 %
    17:00Практически безоблачно+32°C34 %705 мм1.3 м/с37 %
    20:00Небольшая облачность+28°C56 %704 мм1.3 м/с11 %
    23:00Ясно и безоблачно+25°C68 %705 мм1.3 м/с2 %
  • 19июля
    Пятница
    +20°
    +33°
    Практически безоблачно
    ВремяПогодаТемператураВлажностьДавлениеВетер, м/сВероятность осадков
    02:00Ясно и безоблачно+23°C71 %704 мм1.1 м/с2 %
    05:00Ясно и безоблачно+21°C73 %703 мм1.2 м/с2 %
    08:00Ясно и безоблачно+25°C61 %705 мм1.2 м/с2 %
    11:00Ясно и безоблачно+29°C46 %705 мм0.9 м/с3 %
    14:00Практически безоблачно+33°C36 %704 мм0.8 м/с24 %
    17:00Практически безоблачно+31°C36 %702 мм1.3 м/с47 %
    20:00Ясно и безоблачно+28°C51 %702 мм1.1 м/с21 %
    23:00Ясно и безоблачно+24°C64 %702 мм1.5 м/с2 %
  • 20июля
    Суббота
    +20°
    +34°
    Практически безоблачно
    ВремяПогодаТемператураВлажностьДавлениеВетер, м/сВероятность осадков
    02:00Ясно и безоблачно+22°C70 %701 мм1.4 м/с2 %
    05:00Ясно и безоблачно+21°C74 %701 мм1.3 м/с2 %
    08:00Ясно и безоблачно+25°C60 %702 мм1.2 м/с2 %
    11:00Ясно и безоблачно+29°C49 %702 мм1.0 м/с11 %
    14:00Практически безоблачно+33°C42 %702 мм2.4 м/с47 %
    17:00Небольшая облачность, возможен дождь с грозой+30°C49 %702 мм2.8 м/с64 %
    20:00Небольшая облачность, возможен дождь с грозой+26°C67 %701 мм1.3 м/с44 %
    23:00Ясно и безоблачно+23°C80 %701 мм0.9 м/с7 %
Мы используем cookies
Соглашаюсь